createdAt,value
2023-03-14T06:29:51.438Z,48.88
2023-03-14T06:32:17.970Z,50.65
2023-03-14T06:34:45.015Z,49.00
2023-03-14T06:37:11.883Z,49.15
2023-03-14T06:39:38.461Z,48.66
2023-03-14T06:42:05.351Z,49.51
2023-03-14T06:44:32.013Z,49.45
2023-03-14T06:46:58.528Z,49.52
2023-03-14T06:49:25.189Z,47.53
2023-03-14T06:51:51.753Z,49.09
2023-03-14T06:54:18.398Z,48.15
2023-03-14T06:56:45.188Z,47.23
2023-03-14T06:59:11.887Z,47.63
2023-03-14T07:01:38.477Z,46.90
2023-03-14T07:04:05.692Z,47.39
2023-03-14T07:06:32.328Z,47.70
2023-03-14T07:08:58.986Z,47.68
2023-03-14T07:11:25.595Z,46.35
2023-03-14T07:13:53.246Z,46.66
2023-03-14T07:16:26.307Z,45.66
2023-03-14T07:18:52.856Z,45.82
2023-03-14T07:21:19.377Z,44.95
2023-03-14T07:23:45.925Z,45.38
2023-03-14T07:26:12.456Z,44.37
2023-03-14T07:28:38.987Z,44.69
2023-03-14T07:31:08.688Z,45.83
2023-03-14T07:33:35.950Z,44.25
2023-03-14T07:36:03.788Z,44.44
2023-03-14T07:38:30.763Z,44.91
2023-03-14T07:41:04.629Z,43.69
2023-03-14T07:43:31.369Z,43.66
2023-03-14T07:45:59.499Z,42.90
2023-03-14T07:48:26.571Z,43.34
2023-03-14T07:50:54.432Z,43.90
2023-03-14T07:53:22.242Z,43.15
2023-03-14T07:55:48.849Z,42.55
2023-03-14T07:58:15.759Z,41.13
2023-03-14T08:00:42.315Z,42.50
2023-03-14T08:03:09.165Z,42.41
2023-03-14T08:05:39.446Z,41.89
2023-03-14T08:08:06.719Z,41.68
2023-03-14T08:10:33.687Z,41.26
2023-03-14T08:13:01.902Z,41.55
2023-03-14T08:15:30.718Z,41.14
2023-03-14T08:17:57.491Z,40.45
2023-03-14T08:20:27.942Z,40.71
2023-03-14T08:22:57.323Z,41.00
2023-03-14T08:25:24.793Z,39.90
2023-03-14T08:27:51.699Z,39.44
2023-03-14T08:30:20.302Z,39.43
2023-03-14T08:32:46.989Z,39.13
2023-03-14T08:35:14.251Z,38.61
2023-03-14T08:37:40.846Z,37.65
2023-03-14T08:40:11.039Z,37.20
2023-03-14T08:42:39.289Z,36.84
2023-03-14T08:45:07.391Z,36.49
2023-03-14T08:47:33.969Z,35.94
2023-03-14T08:50:02.653Z,35.65
2023-03-14T08:52:29.396Z,35.69
2023-03-14T08:54:57.024Z,36.42
2023-03-14T08:57:26.740Z,35.86
2023-03-14T08:59:53.292Z,36.85
2023-03-14T09:02:19.901Z,36.76
2023-03-14T09:04:46.645Z,37.60
2023-03-14T09:07:14.763Z,37.07
2023-03-14T09:09:41.397Z,37.96
2023-03-14T09:12:08.154Z,36.78
2023-03-14T09:14:34.744Z,37.74
2023-03-14T09:17:07.529Z,37.16
2023-03-14T09:19:37.369Z,37.19
2023-03-14T09:22:04.343Z,36.86
2023-03-14T09:24:34.821Z,36.88
2023-03-14T09:27:04.014Z,37.02
2023-03-14T09:29:30.609Z,37.17
2023-03-14T09:31:59.253Z,36.93
2023-03-14T09:34:26.177Z,37.29
2023-03-14T09:36:52.781Z,37.59
2023-03-14T09:39:19.531Z,37.08
2023-03-14T09:41:49.783Z,37.15
2023-03-14T09:44:25.399Z,36.98
2023-03-14T09:46:54.784Z,36.87
2023-03-14T09:49:26.128Z,36.56
2023-03-14T09:51:55.467Z,36.65
2023-03-14T09:54:39.872Z,35.63
2023-03-14T09:57:12.079Z,36.25
2023-03-14T09:59:39.838Z,36.73
2023-03-14T10:02:29.697Z,34.98
2023-03-14T10:04:56.244Z,35.03
2023-03-14T10:07:31.627Z,34.88
2023-03-14T10:09:59.518Z,34.66
2023-03-14T10:12:34.258Z,33.75
2023-03-14T10:15:11.607Z,32.98
2023-03-14T10:17:51.726Z,32.17
2023-03-14T10:20:33.272Z,28.88
2023-03-14T10:23:21.130Z,26.37
2023-03-14T10:26:01.428Z,25.70
2023-03-14T10:28:30.090Z,24.58
2023-03-14T10:31:00.449Z,22.98
2023-03-14T10:33:33.209Z,23.77
2023-03-14T10:35:59.983Z,22.92
2023-03-14T10:38:32.443Z,25.19
2023-03-14T10:41:00.164Z,25.95
2023-03-14T10:43:34.704Z,25.04
2023-03-14T10:46:13.374Z,23.88
2023-03-14T10:48:40.515Z,22.01
2023-03-14T10:51:18.669Z,23.97
2023-03-14T10:53:56.232Z,23.77
2023-03-14T10:56:25.893Z,22.18
2023-03-14T10:58:57.421Z,21.04
2023-03-14T11:01:49.123Z,21.51
2023-03-14T11:04:42.037Z,22.19
2023-03-14T11:07:41.787Z,23.79
2023-03-14T11:11:08.031Z,23.40
2023-03-14T11:13:36.726Z,22.29
2023-03-14T11:16:09.247Z,19.10
2023-03-14T11:18:53.196Z,19.39
2023-03-14T11:21:24.978Z,18.87
2023-03-14T11:24:26.538Z,15.96
2023-03-14T11:27:17.644Z,17.07
2023-03-14T11:29:55.984Z,17.70
2023-03-14T11:33:09.901Z,17.38
2023-03-14T11:35:42.412Z,19.19
2023-03-14T11:38:31.300Z,20.27
2023-03-14T11:40:59.960Z,22.70
2023-03-14T11:43:33.342Z,24.29
2023-03-14T11:46:11.934Z,26.48
2023-03-14T11:48:58.050Z,27.05
2023-03-14T11:51:30.553Z,26.83
2023-03-14T11:54:06.622Z,27.74
2023-03-14T11:56:50.127Z,29.48
2023-03-14T11:59:28.526Z,28.96
2023-03-14T12:02:18.297Z,29.68
2023-03-14T12:04:53.038Z,30.43
2023-03-14T12:07:35.684Z,30.22
2023-03-14T12:10:04.014Z,29.97
2023-03-14T12:12:32.246Z,29.69
2023-03-14T12:15:03.655Z,29.89
2023-03-14T12:17:40.036Z,29.99
2023-03-14T12:20:18.797Z,30.36
2023-03-14T12:23:04.792Z,29.86
2023-03-14T12:25:34.303Z,30.67
2023-03-14T12:28:01.023Z,30.52
2023-03-14T12:30:38.148Z,30.80
2023-03-14T12:33:10.536Z,31.40
2023-03-14T12:36:01.617Z,31.30
2023-03-14T12:38:37.792Z,30.91
2023-03-14T12:41:29.834Z,31.91
2023-03-14T12:43:56.462Z,32.26
2023-03-14T12:46:26.167Z,32.01
2023-03-14T12:49:01.820Z,31.95
2023-03-14T12:51:42.178Z,33.01
2023-03-14T12:54:34.682Z,32.17
2023-03-14T12:57:28.796Z,32.30
2023-03-14T13:00:00.544Z,32.24
2023-03-14T13:02:39.643Z,31.22
2023-03-14T13:05:13.311Z,30.66
2023-03-14T13:07:48.918Z,31.27
2023-03-14T13:10:25.325Z,31.57
2023-03-14T13:12:57.274Z,31.40
2023-03-14T13:15:32.682Z,31.31
2023-03-14T13:18:30.522Z,31.88
2023-03-14T13:21:04.718Z,31.14
2023-03-14T13:23:37.398Z,31.18
2023-03-14T13:26:07.037Z,32.09
2023-03-14T13:28:36.428Z,31.65
2023-03-14T13:31:04.572Z,31.98
2023-03-14T13:33:31.644Z,31.70
2023-03-14T13:36:02.365Z,31.46
2023-03-14T13:38:33.885Z,30.92
2023-03-14T13:41:04.714Z,30.64
2023-03-14T13:43:35.879Z,31.92
2023-03-14T13:46:08.547Z,31.26
2023-03-14T13:48:47.269Z,31.82
2023-03-14T13:51:17.306Z,31.91
2023-03-14T13:53:49.363Z,31.52
2023-03-14T13:56:22.751Z,32.10
2023-03-14T13:58:50.992Z,32.05
2023-03-14T14:01:36.712Z,31.23
2023-03-14T14:13:53.733Z,31.95
2023-03-14T14:16:25.216Z,32.08
2023-03-14T14:18:53.912Z,32.49
2023-03-14T14:21:24.997Z,31.82
2023-03-14T14:23:52.155Z,32.70
2023-03-14T14:26:20.647Z,32.96
2023-03-14T14:28:48.035Z,32.60
2023-03-14T14:31:23.180Z,32.33
2023-03-14T14:34:01.634Z,33.85
2023-03-14T14:36:40.652Z,33.45
2023-03-14T14:39:17.693Z,34.45
2023-03-14T14:41:45.030Z,34.08
2023-03-14T14:44:13.772Z,33.15
2023-03-14T14:46:40.859Z,34.03
2023-03-14T14:49:13.530Z,33.44
2023-03-14T14:51:49.114Z,34.32
2023-03-14T14:54:18.677Z,34.08
2023-03-14T14:56:53.431Z,34.37
2023-03-14T14:59:23.684Z,34.18
2023-03-14T15:01:50.334Z,33.67
2023-03-14T15:04:16.984Z,33.55
2023-03-14T15:06:48.653Z,33.57
2023-03-14T15:09:15.980Z,33.46
2023-03-14T15:11:42.533Z,33.58
2023-03-14T15:14:09.154Z,33.99
2023-03-14T15:16:36.512Z,34.60
2023-03-14T15:19:23.651Z,34.71
2023-03-14T15:21:52.885Z,34.61
2023-03-14T15:24:19.565Z,34.80
2023-03-14T15:26:46.171Z,35.69
2023-03-14T15:29:13.355Z,35.35
2023-03-14T15:31:40.746Z,35.60
2023-03-14T15:34:07.399Z,35.97
2023-03-14T15:36:35.354Z,35.84
2023-03-14T15:39:03.498Z,35.72
2023-03-14T15:41:30.116Z,35.71
2023-03-14T15:43:56.995Z,35.75
2023-03-14T15:46:23.698Z,36.48
2023-03-14T15:48:51.844Z,36.15
2023-03-14T15:51:19.330Z,36.46
2023-03-14T15:53:46.076Z,36.89
2023-03-14T15:56:15.561Z,36.93
2023-03-14T15:58:42.865Z,36.54
2023-03-14T16:01:09.878Z,38.14
2023-03-14T16:03:39.829Z,37.44
2023-03-14T16:06:06.981Z,37.63
2023-03-14T16:08:33.526Z,38.35
2023-03-14T16:11:00.436Z,38.44
2023-03-14T16:13:27.470Z,39.23
2023-03-14T16:16:03.647Z,38.78
2023-03-14T16:18:32.599Z,39.06
2023-03-14T16:21:01.408Z,38.79
2023-03-14T16:23:29.170Z,38.41
2023-03-14T16:25:56.722Z,39.74
2023-03-14T16:28:24.190Z,39.36
2023-03-14T16:30:50.785Z,39.41
2023-03-14T16:33:18.357Z,39.58
2023-03-14T16:35:58.650Z,39.02
2023-03-14T16:38:25.206Z,39.20
2023-03-14T16:41:16.311Z,39.26
2023-03-14T16:43:43.773Z,37.99
2023-03-14T16:46:17.461Z,38.48
2023-03-14T16:48:45.114Z,38.43
2023-03-14T16:51:12.563Z,38.79
2023-03-14T16:53:39.170Z,38.75
2023-03-14T16:56:06.393Z,37.24
2023-03-14T16:58:33.027Z,37.39
2023-03-14T17:00:59.673Z,38.09
2023-03-14T17:03:26.513Z,37.36
2023-03-14T17:05:53.390Z,36.60
2023-03-14T17:08:21.209Z,37.56
2023-03-14T17:10:47.896Z,37.38
2023-03-14T17:13:14.640Z,37.64
2023-03-14T17:15:46.682Z,37.53
2023-03-14T17:18:13.317Z,36.92
2023-03-14T17:20:39.846Z,36.39
2023-03-14T17:23:06.489Z,37.06
2023-03-14T17:25:33.205Z,35.36
2023-03-14T17:27:59.830Z,35.31
2023-03-14T17:30:26.333Z,35.25
2023-03-14T17:32:52.872Z,34.55
2023-03-14T17:35:19.403Z,34.59
2023-03-14T17:37:45.994Z,35.22
2023-03-14T17:40:12.887Z,34.15
2023-03-14T17:42:39.475Z,35.44
2023-03-14T17:45:06.748Z,34.23
2023-03-14T17:47:33.440Z,35.22
2023-03-14T17:50:00.021Z,34.11
2023-03-14T17:52:26.921Z,33.94
2023-03-14T17:54:53.501Z,33.05
2023-03-14T17:57:20.236Z,33.07
2023-03-14T17:59:46.776Z,33.53
2023-03-14T18:02:13.564Z,34.13
2023-03-14T18:04:40.287Z,33.46
2023-03-14T18:07:07.028Z,33.20
2023-03-14T18:09:33.612Z,32.70
2023-03-14T18:12:07.378Z,33.49
2023-03-14T18:14:35.937Z,32.06
2023-03-14T18:17:02.640Z,32.38
2023-03-14T18:19:29.201Z,33.13
2023-03-14T18:21:56.198Z,32.78
2023-03-14T18:24:22.838Z,31.74
2023-03-14T18:26:49.521Z,32.36
2023-03-14T18:29:16.178Z,32.98
2023-03-14T18:31:43.753Z,33.33
2023-03-14T18:34:11.817Z,33.50
2023-03-14T18:36:38.992Z,33.06
2023-03-14T18:39:06.652Z,34.04
2023-03-14T18:41:35.006Z,33.46
2023-03-14T18:44:02.507Z,34.32
2023-03-14T18:46:29.931Z,34.67
2023-03-14T18:48:57.085Z,33.94
2023-03-14T18:51:26.072Z,33.97
2023-03-14T18:53:56.520Z,33.89
2023-03-14T18:56:29.895Z,34.25
2023-03-14T18:58:56.997Z,33.77
2023-03-14T19:01:23.752Z,34.40
2023-03-14T19:03:50.443Z,34.54
2023-03-14T19:06:17.750Z,33.39
2023-03-14T19:08:44.259Z,34.69
2023-03-14T19:11:13.140Z,34.56
2023-03-14T19:13:40.992Z,33.93
2023-03-14T19:16:12.328Z,34.53
2023-03-14T19:18:39.318Z,34.67
2023-03-14T19:21:08.469Z,35.55
2023-03-14T19:23:37.128Z,36.15
2023-03-14T19:26:04.515Z,34.88
2023-03-14T19:28:31.964Z,34.98
2023-03-14T19:30:59.530Z,35.63
2023-03-14T19:33:26.139Z,35.48
2023-03-14T19:35:53.065Z,35.46
2023-03-14T19:38:19.741Z,34.81
2023-03-14T19:40:46.320Z,35.31
2023-03-14T19:43:13.468Z,34.91
2023-03-14T19:45:42.232Z,35.61
2023-03-14T19:48:11.128Z,35.46
2023-03-14T19:50:38.474Z,36.04
2023-03-14T19:53:05.437Z,35.70
2023-03-14T19:55:32.009Z,35.97
2023-03-14T19:57:58.500Z,36.01
2023-03-14T20:00:25.344Z,37.33
2023-03-14T20:02:53.591Z,37.66
2023-03-14T20:05:22.421Z,38.21
2023-03-14T20:07:49.541Z,38.55
2023-03-14T20:10:18.785Z,39.33
2023-03-14T20:12:46.026Z,40.25
2023-03-14T20:15:14.492Z,40.18
2023-03-14T20:17:41.279Z,39.87
2023-03-14T20:20:09.390Z,40.04
2023-03-14T20:22:37.041Z,40.13
2023-03-14T20:25:08.378Z,40.23
2023-03-14T20:27:35.746Z,40.30
2023-03-14T20:30:02.571Z,41.02
2023-03-14T20:32:29.710Z,40.96
2023-03-14T20:34:57.304Z,41.10
2023-03-14T20:37:23.995Z,41.37
2023-03-14T20:39:50.681Z,41.32
2023-03-14T20:42:17.537Z,41.95
2023-03-14T20:44:44.877Z,41.21
2023-03-14T20:47:12.566Z,41.11
2023-03-14T20:49:39.147Z,41.25
2023-03-14T20:52:06.001Z,41.25
2023-03-14T20:54:33.134Z,41.17
2023-03-14T20:56:59.639Z,42.01
2023-03-14T20:59:26.294Z,42.13
2023-03-14T21:01:53.016Z,40.36
2023-03-14T21:04:19.627Z,40.97
2023-03-14T21:06:46.220Z,41.16
2023-03-14T21:09:12.872Z,41.04
2023-03-14T21:11:39.425Z,40.31
2023-03-14T21:14:06.090Z,41.07
2023-03-14T21:16:32.951Z,40.99
2023-03-14T21:18:59.526Z,40.91
2023-03-14T21:21:26.107Z,40.56
2023-03-14T21:23:52.638Z,40.02
2023-03-14T21:26:19.180Z,40.53
2023-03-14T21:28:45.689Z,40.62
2023-03-14T21:31:12.434Z,40.80
2023-03-14T21:33:39.836Z,39.52
2023-03-14T21:36:06.925Z,40.52
2023-03-14T21:38:33.662Z,40.56
2023-03-14T21:41:00.405Z,40.51
2023-03-14T21:43:27.657Z,40.37
2023-03-14T21:45:54.613Z,40.36
2023-03-14T21:48:22.123Z,40.65
2023-03-14T21:50:49.070Z,40.69
2023-03-14T21:53:15.666Z,41.08
2023-03-14T21:55:46.773Z,41.11
2023-03-14T21:58:14.691Z,40.96
2023-03-14T22:00:42.726Z,41.22
2023-03-14T22:03:13.305Z,41.14
2023-03-14T22:05:44.979Z,41.27
2023-03-14T22:08:12.421Z,41.66
2023-03-14T22:10:45.697Z,41.84
2023-03-14T22:13:12.885Z,41.56
2023-03-14T22:15:39.825Z,41.95
2023-03-14T22:18:06.367Z,42.04
2023-03-14T22:20:33.263Z,42.21
2023-03-14T22:22:59.795Z,42.13
2023-03-14T22:25:26.347Z,42.03
2023-03-14T22:27:53.151Z,41.88
2023-03-14T22:30:19.698Z,42.05
2023-03-14T22:32:46.350Z,41.77
2023-03-14T22:35:13.031Z,41.99
2023-03-14T22:37:41.436Z,41.81
2023-03-14T22:40:09.143Z,42.49
2023-03-14T22:42:35.928Z,42.25
2023-03-14T22:45:02.538Z,42.36
2023-03-14T22:47:29.110Z,43.13
2023-03-14T22:49:55.655Z,43.08
2023-03-14T22:52:22.212Z,43.31
2023-03-14T22:54:48.793Z,43.21
2023-03-14T22:57:15.358Z,43.85
2023-03-14T22:59:41.918Z,44.17
2023-03-14T23:02:08.761Z,43.58
2023-03-14T23:04:35.289Z,44.08
2023-03-14T23:07:01.896Z,44.35
2023-03-14T23:09:28.598Z,44.05
2023-03-14T23:11:55.314Z,44.36
2023-03-14T23:14:21.903Z,45.23
2023-03-14T23:16:49.617Z,44.51
2023-03-14T23:19:16.415Z,45.07
2023-03-14T23:21:42.951Z,44.96
2023-03-14T23:24:10.131Z,45.66
2023-03-14T23:26:38.151Z,45.65
2023-03-14T23:29:05.352Z,45.37
2023-03-14T23:31:32.862Z,46.20
2023-03-14T23:33:59.470Z,46.54
2023-03-14T23:36:26.109Z,45.87
2023-03-14T23:38:52.780Z,46.54
2023-03-14T23:41:19.285Z,46.31
2023-03-14T23:43:46.642Z,46.11
2023-03-14T23:46:14.716Z,46.18
2023-03-14T23:48:41.451Z,47.41
2023-03-14T23:51:10.636Z,47.47
2023-03-14T23:53:37.471Z,47.61
2023-03-14T23:56:04.298Z,47.57
2023-03-14T23:58:31.496Z,47.32
